Time;durP1;ratioP1;P1;durP2;ratioP2;P2;SDS_P1;SDS_P2;PMS_P1;PMS_P2;Temp;Humidity;BMP_temperature;BMP_pressure;BME280_temperature;BME280_humidity;BME280_pressure;Samples;Min_cycle;Max_cycle;Signal;HPM_P1;HPM_P2
2022/01/25 00:10:39;;;;;;;33.40;6.18;;;;;;;5.85;88.33;101419.69;5066675;28;20124;-75
2022/01/25 00:26:38;;;;;;;36.30;5.90;;;;;;;5.80;87.71;101450.50;5065798;28;20039;-75
2022/01/25 00:29:11;;;;;;;38.65;6.03;;;;;;;5.78;87.53;101434.09;5065635;28;20501;-75
2022/01/25 00:31:39;;;;;;;36.45;6.13;;;;;;;5.70;87.72;101440.75;5065978;28;20025;-76
2022/01/25 00:34:05;;;;;;;35.25;4.93;;;;;;;5.65;87.44;101445.78;5065524;28;20100;-75
2022/01/25 00:36:31;;;;;;;37.95;8.27;;;;;;;5.59;87.66;101440.47;5065512;28;20515;-75
2022/01/25 00:38:57;;;;;;;55.15;6.80;;;;;;;5.61;87.51;101435.34;5048143;28;20029;-75
2022/01/25 00:41:24;;;;;;;37.38;5.55;;;;;;;5.57;87.30;101444.69;5065571;28;20116;-75
2022/01/25 00:43:49;;;;;;;32.03;6.82;;;;;;;5.51;87.08;101440.22;5065147;28;20028;-76
2022/01/25 00:46:17;;;;;;;41.28;6.13;;;;;;;5.52;87.17;101452.28;5065334;28;20427;-75
2022/01/25 00:48:46;;;;;;;34.90;5.70;;;;;;;5.44;87.20;101452.06;5065092;28;20025;-75
2022/01/25 00:56:20;;;;;;;30.48;5.53;;;;;;;5.21;87.20;101433.31;5064974;28;20033;-75
2022/01/25 00:58:45;;;;;;;36.90;5.55;;;;;;;5.20;87.42;101445.34;5065186;28;20036;-75
2022/01/25 01:01:11;;;;;;;36.75;6.45;;;;;;;5.15;87.16;101457.19;5065230;28;20029;-75
2022/01/25 01:03:36;;;;;;;34.67;6.90;;;;;;;5.21;87.23;101467.66;5065022;28;20445;-75
2022/01/25 01:06:04;;;;;;;33.17;5.78;;;;;;;5.11;87.42;101465.66;5046833;28;20029;-75
2022/01/25 01:08:29;;;;;;;34.15;5.07;;;;;;;5.10;87.34;101470.75;5064863;28;20031;-74
2022/01/25 01:10:57;;;;;;;35.78;4.93;;;;;;;5.10;87.13;101483.63;5064997;28;20021;-75
2022/01/25 01:13:49;;;;;;;33.55;4.78;;;;;;;5.08;87.00;101466.41;5046159;28;20043;-75
2022/01/25 01:38:06;;;;;;;36.00;5.88;;;;;;;4.65;86.84;101477.91;5064747;28;20083;-75
2022/01/25 01:43:37;;;;;;;34.92;5.45;;;;;;;4.60;86.49;101485.44;4963400;29;20031;-75
2022/01/25 01:48:50;;;;;;;33.35;5.82;;;;;;;4.59;86.32;101482.00;4963521;29;20035;-76
2022/01/25 01:51:24;;;;;;;33.28;5.95;;;;;;;4.38;86.33;101446.16;4947345;29;20047;-75
2022/01/25 01:53:50;;;;;;;29.77;4.85;;;;;;;4.44;86.51;101476.34;4963028;29;20041;-75
2022/01/25 01:56:15;;;;;;;26.58;4.97;;;;;;;4.43;86.43;101480.59;4962987;29;20094;-75
2022/01/25 01:58:41;;;;;;;38.70;5.07;;;;;;;4.42;86.29;101473.72;4962768;29;20032;-76
2022/01/25 02:01:14;;;;;;;40.30;6.15;;;;;;;4.37;86.12;101477.84;4946686;29;20039;-75
2022/01/25 02:03:40;;;;;;;26.80;5.00;;;;;;;4.32;86.31;101476.78;4962803;29;20043;-76
2022/01/25 02:06:06;;;;;;;27.85;5.00;;;;;;;4.28;86.24;101485.22;4962807;29;20063;-75
2022/01/25 02:08:33;;;;;;;29.17;5.88;;;;;;;4.26;86.00;101486.88;4962904;29;20035;-76
2022/01/25 02:10:59;;;;;;;32.65;6.63;;;;;;;4.24;86.41;101486.81;4962542;29;20419;-75
2022/01/25 02:13:25;;;;;;;36.50;5.63;;;;;;;4.20;86.11;101490.09;4973849;28;20027;-76
2022/01/25 02:15:51;;;;;;;26.50;4.63;;;;;;;4.04;86.14;101470.69;5063532;28;20017;-76
2022/01/25 02:23:46;;;;;;;28.08;4.93;;;;;;;3.93;86.09;101463.44;5063643;28;20024;-76
2022/01/25 02:26:13;;;;;;;31.65;4.32;;;;;;;4.09;86.07;101499.97;5063222;28;20385;-76
2022/01/25 02:28:42;;;;;;;29.25;5.90;;;;;;;4.07;85.93;101496.50;5063059;28;20067;-76
2022/01/25 02:31:09;;;;;;;27.08;5.18;;;;;;;4.04;85.95;101497.25;5063459;28;20029;-76
2022/01/25 02:33:35;;;;;;;45.75;5.13;;;;;;;4.00;85.97;101494.50;5063243;28;20021;-76
2022/01/25 02:36:05;;;;;;;41.75;5.15;;;;;;;3.95;86.17;101505.50;5062729;28;20112;-73
2022/01/25 02:38:33;;;;;;;23.80;5.05;;;;;;;3.88;86.00;101495.84;5044930;28;20025;-74
2022/01/25 02:40:59;;;;;;;29.98;4.97;;;;;;;3.88;85.86;101500.09;5062474;28;20017;-75
2022/01/25 02:43:26;;;;;;;25.10;4.22;;;;;;;3.72;85.79;101490.09;5061428;28;20040;-75
2022/01/25 02:48:58;;;;;;;28.05;4.85;;;;;;;3.73;86.22;101501.25;5063343;28;20047;-75
2022/01/25 02:51:27;;;;;;;28.33;4.13;;;;;;;3.65;86.05;101497.53;5063134;28;20028;-76
2022/01/25 02:53:53;;;;;;;20.95;4.82;;;;;;;3.72;85.99;101502.94;5062846;28;20025;-76
2022/01/25 02:56:19;;;;;;;28.65;5.00;;;;;;;3.66;86.18;101505.28;5062849;28;20054;-76
2022/01/25 02:58:46;;;;;;;28.38;5.25;;;;;;;3.59;86.19;101493.91;5044456;28;20425;-76
2022/01/25 03:01:12;;;;;;;24.52;3.40;;;;;;;3.60;86.27;101502.47;5063092;28;20017;-76
2022/01/25 03:03:38;;;;;;;21.08;3.72;;;;;;;3.61;86.18;101505.94;5062862;28;20021;-76
2022/01/25 03:06:04;;;;;;;30.17;3.90;;;;;;;3.56;86.55;101498.06;5062667;28;20028;-75
2022/01/25 03:08:30;;;;;;;34.88;6.90;;;;;;;3.53;86.53;101503.94;5062692;28;20147;-76
2022/01/25 03:10:55;;;;;;;18.83;3.35;;;;;;;3.50;86.49;101501.25;5062894;28;20037;-75
2022/01/25 03:13:26;;;;;;;29.52;4.95;;;;;;;3.40;86.47;101484.63;5062432;28;20028;-75
2022/01/25 03:18:54;;;;;;;20.73;3.92;;;;;;;3.49;86.74;101501.19;5062570;28;20036;-75
2022/01/25 03:21:32;;;;;;;30.58;4.10;;;;;;;3.44;86.57;101509.59;5058485;28;20100;-74
2022/01/25 03:23:57;;;;;;;30.08;4.22;;;;;;;3.44;86.79;101498.44;5062754;28;20016;-74
2022/01/25 03:26:25;;;;;;;34.10;5.43;;;;;;;3.43;86.50;101499.28;5062494;28;20024;-74
2022/01/25 03:28:51;;;;;;;17.15;3.40;;;;;;;3.33;86.73;101482.63;5062376;28;20488;-74
2022/01/25 03:31:17;;;;;;;18.10;3.03;;;;;;;3.37;86.75;101491.34;5062572;28;20055;-74
2022/01/25 03:33:43;;;;;;;25.88;3.97;;;;;;;3.38;86.68;101487.94;5062399;28;20469;-74
2022/01/25 03:36:09;;;;;;;18.95;4.22;;;;;;;3.27;86.65;101467.00;5040828;28;20103;-74
2022/01/25 03:38:39;;;;;;;25.50;3.85;;;;;;;3.25;86.77;101468.63;5042590;28;20051;-75
2022/01/25 03:41:07;;;;;;;26.90;3.45;;;;;;;3.35;86.86;101494.69;5042544;28;20068;-75
2022/01/25 03:43:35;;;;;;;22.52;4.30;;;;;;;3.34;86.63;101492.97;5041831;28;20022;-75
2022/01/25 03:50:58;;;;;;;24.80;5.28;;;;;;;3.29;86.66;101475.66;5042867;28;20032;-75
2022/01/25 03:53:24;;;;;;;17.50;3.13;;;;;;;3.23;86.34;101473.69;5044336;28;20036;-75
2022/01/25 03:55:49;;;;;;;19.92;3.90;;;;;;;3.34;86.15;101495.53;5046455;28;20040;-75
2022/01/25 03:58:15;;;;;;;35.47;3.47;;;;;;;3.29;86.15;101486.75;5046451;28;20505;-75
2022/01/25 04:00:44;;;;;;;24.80;3.05;;;;;;;3.28;86.25;101496.97;5045004;28;20033;-75
2022/01/25 04:03:16;;;;;;;23.30;3.92;;;;;;;3.25;86.11;101502.88;5046587;28;20024;-75
2022/01/25 04:08:13;;;;;;;14.40;2.92;;;;;;;3.15;86.04;101495.59;5046302;28;20038;-75
2022/01/25 04:10:39;;;;;;;17.75;2.65;;;;;;;3.03;86.20;101475.47;5046213;28;20024;-75
2022/01/25 04:13:05;;;;;;;24.90;3.03;;;;;;;3.16;86.31;101499.94;5046170;28;20052;-75
2022/01/25 04:15:30;;;;;;;18.60;3.30;;;;;;;3.09;86.33;101497.13;5045839;28;20030;-75
2022/01/25 04:18:19;;;;;;;19.25;2.80;;;;;;;3.20;86.00;101510.38;5045972;28;20017;-76
2022/01/25 04:20:55;;;;;;;23.48;3.70;;;;;;;3.12;85.94;101487.78;5045925;28;20486;-76
2022/01/25 04:26:05;;;;;;;16.90;2.33;;;;;;;3.14;85.76;101505.03;5045847;28;20036;-76
2022/01/25 04:28:30;;;;;;;19.00;3.00;;;;;;;3.15;85.78;101496.50;5045692;28;20037;-76
2022/01/25 04:30:56;;;;;;;6.95;2.10;;;;;;;3.12;85.59;101491.25;5046036;28;20022;-74
2022/01/25 04:33:25;;;;;;;13.40;2.40;;;;;;;3.12;85.76;101506.63;5045604;28;20420;-75
2022/01/25 04:49:33;;;;;;;15.70;2.55;;;;;;;3.01;85.26;101513.91;5045578;28;20036;-72
2022/01/25 04:57:10;;;;;;;19.52;3.45;;;;;;;3.07;85.30;101526.09;5045333;28;20025;-72
2022/01/25 04:59:43;;;;;;;13.02;2.72;;;;;;;3.00;85.17;101527.56;5045244;28;20018;-73
2022/01/25 05:05:07;;;;;;;17.00;2.28;;;;;;;3.03;84.87;101526.78;5045241;28;20064;-74
2022/01/25 05:10:07;;;;;;;11.13;2.25;;;;;;;2.97;84.86;101525.72;5045322;28;20033;-74
2022/01/25 05:12:50;;;;;;;18.25;2.42;;;;;;;2.93;84.85;101526.41;5044929;28;20021;-73
2022/01/25 05:17:47;;;;;;;20.05;2.70;;;;;;;2.85;84.76;101514.97;5045053;28;20017;-73
2022/01/25 05:22:57;;;;;;;24.48;2.63;;;;;;;2.90;84.99;101520.28;5044959;28;20065;-72
2022/01/25 05:25:22;;;;;;;10.80;2.05;;;;;;;2.91;85.09;101516.88;5043285;28;20018;-73
2022/01/25 05:27:48;;;;;;;18.85;2.65;;;;;;;2.92;85.10;101523.78;5043174;28;20025;-74
2022/01/25 05:30:13;;;;;;;17.95;2.47;;;;;;;2.89;85.21;101516.81;5044411;28;20025;-70
2022/01/25 05:32:39;;;;;;;12.90;1.98;;;;;;;2.86;85.20;101529.53;5044542;28;20127;-69
2022/01/25 05:35:05;;;;;;;16.98;3.33;;;;;;;2.82;85.00;101513.16;5044576;28;20025;-77
2022/01/25 05:37:41;;;;;;;11.05;2.75;;;;;;;2.87;85.19;101528.72;5042963;28;20056;-72
2022/01/25 05:40:13;;;;;;;16.42;2.28;;;;;;;2.81;85.29;101515.66;5044570;28;20053;-72
2022/01/25 05:47:45;;;;;;;16.88;2.45;;;;;;;2.89;85.08;101533.94;5044234;28;20044;-71
2022/01/25 05:50:13;;;;;;;20.13;2.65;;;;;;;2.78;85.31;101524.06;5043957;28;20447;-72
2022/01/25 05:52:39;;;;;;;18.10;2.55;;;;;;;2.82;85.36;101541.38;5044133;28;20033;-72
2022/01/25 05:55:05;;;;;;;19.20;2.40;;;;;;;2.78;85.51;101536.91;5044067;28;20078;-73
2022/01/25 05:57:31;;;;;;;17.77;3.00;;;;;;;2.78;85.55;101539.47;5044254;28;20035;-72
2022/01/25 05:59:56;;;;;;;26.92;2.88;;;;;;;2.76;85.81;101542.78;5043936;28;20053;-72
2022/01/25 06:02:25;;;;;;;19.08;2.45;;;;;;;2.76;85.76;101537.66;5044301;28;20022;-72
2022/01/25 06:04:52;;;;;;;16.15;2.70;;;;;;;2.69;85.74;101532.28;5042519;28;20029;-72
2022/01/25 06:07:18;;;;;;;13.90;2.35;;;;;;;2.74;85.87;101550.41;5044025;28;20100;-68
2022/01/25 06:09:43;;;;;;;16.88;2.38;;;;;;;2.77;85.63;101547.09;5059229;28;20068;-76
2022/01/25 06:12:10;;;;;;;19.50;2.65;;;;;;;2.72;85.85;101541.78;5042706;28;20397;-78
2022/01/25 06:14:36;;;;;;;22.02;2.83;;;;;;;2.72;86.17;101542.66;5043164;28;20030;-76
2022/01/25 06:17:01;;;;;;;13.07;3.03;;;;;;;2.75;86.17;101543.63;5043783;28;20084;-77
2022/01/25 06:19:27;;;;;;;11.10;2.50;;;;;;;2.73;86.44;101543.56;5043634;28;20021;-77
2022/01/25 06:21:52;;;;;;;20.55;4.18;;;;;;;2.70;86.33;101533.16;5043721;28;20029;-78
2022/01/25 06:24:18;;;;;;;28.55;3.60;;;;;;;2.78;86.50;101546.31;5043663;28;20017;-79
2022/01/25 06:26:43;;;;;;;17.67;2.83;;;;;;;2.69;86.53;101532.28;5043579;28;20029;-76
2022/01/25 06:29:11;;;;;;;14.35;2.58;;;;;;;2.81;86.28;101554.13;5043641;28;20048;-75
2022/01/25 06:31:36;;;;;;;22.23;2.88;;;;;;;2.73;86.44;101535.84;5058881;28;20497;-77
2022/01/25 06:34:02;;;;;;;21.80;2.35;;;;;;;2.82;86.23;101551.63;5042281;28;20093;-77
2022/01/25 06:36:27;;;;;;;29.10;3.25;;;;;;;2.83;86.15;101550.81;5053499;28;20527;-79
2022/01/25 06:38:52;;;;;;;19.33;2.80;;;;;;;2.81;86.20;101543.88;5045779;28;20047;-76
2022/01/25 06:41:18;;;;;;;17.95;4.00;;;;;;;2.70;86.23;101530.59;5063683;28;20024;-77
2022/01/25 06:43:43;;;;;;;13.60;2.85;;;;;;;2.71;86.03;101535.78;5063293;28;20024;-75
2022/01/25 06:46:09;;;;;;;19.92;2.88;;;;;;;2.75;86.29;101543.63;5063442;28;20013;-69
2022/01/25 06:48:34;;;;;;;22.05;2.95;;;;;;;2.77;86.30;101547.09;5063534;28;20021;-74
2022/01/25 06:51:00;;;;;;;21.52;2.53;;;;;;;2.80;86.31;101554.91;5063535;28;20377;-73
2022/01/25 06:53:26;;;;;;;22.10;2.97;;;;;;;2.83;86.20;101561.06;5063409;28;20032;-73
2022/01/25 06:55:52;;;;;;;19.77;3.03;;;;;;;2.83;86.36;101567.88;5063308;28;20055;-69
2022/01/25 06:58:17;;;;;;;19.40;2.60;;;;;;;2.81;86.46;101561.81;5063392;28;20025;-72
2022/01/25 07:00:43;;;;;;;18.48;3.03;;;;;;;2.78;86.45;101559.13;5062905;28;20025;-72
2022/01/25 07:03:08;;;;;;;20.85;2.85;;;;;;;2.63;86.47;101536.25;5063296;28;20047;-72
2022/01/25 07:05:34;;;;;;;21.02;3.40;;;;;;;2.79;86.36;101563.44;5063181;28;20084;-72
2022/01/25 07:08:00;;;;;;;22.10;3.00;;;;;;;2.75;86.35;101559.00;5045452;28;20114;-72
2022/01/25 07:10:25;;;;;;;13.50;2.47;;;;;;;2.78;86.28;101571.97;5063491;28;20368;-72
2022/01/25 07:12:51;;;;;;;23.88;3.47;;;;;;;2.75;86.44;101572.69;5063319;28;20024;-72
2022/01/25 07:15:17;;;;;;;13.02;2.72;;;;;;;2.72;86.38;101570.88;5062747;28;20028;-72
2022/01/25 07:17:43;;;;;;;20.67;2.78;;;;;;;2.70;86.32;101571.63;5063252;28;20027;-72
2022/01/25 07:20:10;;;;;;;23.55;3.17;;;;;;;2.66;86.28;101562.03;5063060;28;20099;-72
2022/01/25 07:22:37;;;;;;;20.13;3.13;;;;;;;2.73;86.27;101572.63;5063074;28;20013;-72
2022/01/25 07:25:05;;;;;;;25.92;3.33;;;;;;;2.69;86.41;101578.44;5062991;28;20028;-72
2022/01/25 07:27:30;;;;;;;20.35;3.42;;;;;;;2.55;86.60;101575.28;5048172;28;20021;-72
2022/01/25 07:29:55;;;;;;;22.25;3.05;;;;;;;2.65;86.81;101594.47;5066692;28;20025;-72
2022/01/25 07:32:21;;;;;;;38.33;5.10;;;;;;;2.56;86.98;101584.72;5049035;28;20028;-72
2022/01/25 07:34:46;;;;;;;28.30;3.78;;;;;;;2.69;86.90;101604.06;5066690;28;20017;-72
2022/01/25 07:37:12;;;;;;;21.52;4.72;;;;;;;2.70;86.95;101610.09;5066641;28;20071;-72
2022/01/25 07:39:37;;;;;;;20.90;3.72;;;;;;;2.78;86.71;101602.72;5066919;28;20020;-72
2022/01/25 07:42:03;;;;;;;19.38;2.95;;;;;;;2.75;86.88;101598.31;5066895;28;20021;-72
2022/01/25 07:44:31;;;;;;;17.00;3.28;;;;;;;2.80;86.77;101606.22;5048390;28;20021;-72
2022/01/25 07:46:57;;;;;;;35.50;4.78;;;;;;;2.80;86.75;101601.97;5066714;28;20400;-73
2022/01/25 07:49:30;;;;;;;24.13;4.07;;;;;;;2.71;86.95;101586.19;5066761;28;20039;-73
2022/01/25 07:51:56;;;;;;;24.88;3.28;;;;;;;2.73;86.84;101582.88;5066434;28;20025;-74
2022/01/25 07:54:21;;;;;;;20.63;3.95;;;;;;;2.72;87.08;101580.25;5066438;28;20021;-74
2022/01/25 07:56:47;;;;;;;28.88;3.95;;;;;;;2.88;87.01;101593.72;5066524;28;20115;-74
2022/01/25 07:59:13;;;;;;;21.63;3.28;;;;;;;2.90;87.02;101590.44;5066323;28;20017;-74
2022/01/25 08:01:39;;;;;;;25.00;4.45;;;;;;;2.88;87.52;101574.09;5066423;28;20024;-73
2022/01/25 08:04:04;;;;;;;26.17;3.60;;;;;;;3.21;87.52;101588.28;5066332;28;20045;-74
2022/01/25 08:06:30;;;;;;;24.50;4.30;;;;;;;3.66;87.09;101596.88;5066523;28;20032;-75
2022/01/25 08:08:55;;;;;;;15.45;3.40;;;;;;;4.09;86.67;101587.34;5066484;28;20051;-76
2022/01/25 08:11:23;;;;;;;17.30;3.00;;;;;;;4.40;85.35;101561.91;5066331;28;20040;-75
2022/01/25 08:13:49;;;;;;;19.50;3.38;;;;;;;4.86;84.49;101578.06;5066064;28;20028;-75
2022/01/25 08:16:18;;;;;;;21.30;3.65;;;;;;;5.23;84.43;101583.59;5066029;28;20107;-75
2022/01/25 08:18:44;;;;;;;15.13;3.85;;;;;;;5.74;83.33;101607.50;5066233;28;20020;-75
2022/01/25 08:21:10;;;;;;;26.20;3.50;;;;;;;5.98;82.38;101575.56;5065825;28;20473;-75
2022/01/25 08:23:35;;;;;;;14.43;2.92;;;;;;;6.35;80.87;101595.53;5066317;28;20080;-75
2022/01/25 08:26:01;;;;;;;16.73;3.15;;;;;;;6.65;80.46;101595.53;5065998;28;20021;-75
2022/01/25 08:28:26;;;;;;;18.75;2.75;;;;;;;6.92;80.46;101599.66;5065960;28;20024;-74
2022/01/25 08:30:51;;;;;;;17.08;4.03;;;;;;;7.17;78.83;101595.13;5047855;28;20020;-74
2022/01/25 08:33:17;;;;;;;18.67;5.25;;;;;;;7.28;77.95;101586.78;5065955;28;20497;-73
2022/01/25 08:35:43;;;;;;;18.10;3.90;;;;;;;7.25;77.12;101591.88;5065762;28;20067;-73
2022/01/25 08:38:08;;;;;;;9.38;3.22;;;;;;;7.18;76.97;101591.72;5047939;28;20095;-73
2022/01/25 08:40:34;;;;;;;23.45;4.68;;;;;;;7.18;77.36;101594.31;5066044;28;20067;-74
2022/01/25 08:43:01;;;;;;;16.17;3.08;;;;;;;7.10;77.23;101597.50;5064342;28;20048;-74
2022/01/25 08:45:28;;;;;;;19.13;3.35;;;;;;;6.98;77.45;101596.34;5064841;28;20021;-74
2022/01/25 08:47:54;;;;;;;11.65;4.40;;;;;;;7.11;77.71;101604.44;5064797;28;20025;-73
2022/01/25 08:50:19;;;;;;;12.95;4.22;;;;;;;7.18;76.80;101601.16;5065388;28;20032;-74
2022/01/25 08:52:44;;;;;;;21.25;6.60;;;;;;;7.02;75.68;101587.00;5065495;28;20021;-73
2022/01/25 08:55:10;;;;;;;24.25;3.28;;;;;;;7.31;76.30;101599.75;5065426;28;20084;-73
2022/01/25 08:57:36;;;;;;;16.30;3.15;;;;;;;7.63;76.61;101584.16;5065634;28;20035;-73
2022/01/25 09:00:07;;;;;;;14.10;3.55;;;;;;;8.48;75.99;101597.09;5065152;28;20031;-73
2022/01/25 09:02:32;;;;;;;17.25;3.10;;;;;;;9.15;73.72;101595.75;5065430;28;20077;-75
2022/01/25 09:04:58;;;;;;;24.00;3.42;;;;;;;9.91;72.41;101596.03;5065450;28;20047;-74
2022/01/25 09:07:23;;;;;;;11.98;3.75;;;;;;;10.45;69.15;101579.34;5065456;28;20028;-73
2022/01/25 09:09:49;;;;;;;12.45;3.42;;;;;;;10.96;68.97;101578.16;5065136;28;20052;-74
2022/01/25 09:12:14;;;;;;;15.30;2.70;;;;;;;11.44;67.41;101599.31;5047172;28;20021;-77
2022/01/25 09:14:39;;;;;;;15.93;2.90;;;;;;;11.95;67.83;101584.91;5064975;28;20417;-76
2022/01/25 09:17:07;;;;;;;16.25;3.20;;;;;;;12.61;67.31;101594.72;5065106;28;20055;-73
2022/01/25 09:19:36;;;;;;;13.85;3.88;;;;;;;12.82;64.95;101585.19;5046870;28;20020;-75
2022/01/25 09:22:01;;;;;;;15.30;2.80;;;;;;;13.08;61.95;101596.50;5064843;28;20090;-75
2022/01/25 09:24:28;;;;;;;12.90;2.72;;;;;;;13.42;60.11;101606.06;5065288;28;20451;-75
2022/01/25 09:26:53;;;;;;;13.52;2.90;;;;;;;13.84;61.60;101609.47;5046822;28;20028;-75
2022/01/25 09:29:19;;;;;;;14.88;2.58;;;;;;;14.09;62.00;101608.53;5064296;28;20131;-75
2022/01/25 09:31:44;;;;;;;14.23;3.28;;;;;;;14.52;59.65;101612.66;5064232;28;20017;-76
2022/01/25 09:34:09;;;;;;;17.40;2.63;;;;;;;14.67;58.18;101613.47;5064502;28;20046;-76
2022/01/25 09:36:35;;;;;;;12.48;2.38;;;;;;;14.89;57.85;101603.75;5063905;28;20041;-76
2022/01/25 09:39:00;;;;;;;12.30;2.72;;;;;;;15.19;56.04;101619.25;5046288;28;20389;-75
2022/01/25 09:41:28;;;;;;;18.63;2.60;;;;;;;15.42;56.03;101629.50;5064279;28;20025;-72
2022/01/25 09:43:53;;;;;;;17.95;3.35;;;;;;;15.58;55.56;101619.75;5063708;28;20032;-78
2022/01/25 09:46:19;;;;;;;16.38;3.33;;;;;;;15.85;54.05;101622.09;5064164;28;20037;-77
2022/01/25 09:48:44;;;;;;;18.70;4.18;;;;;;;15.91;53.12;101613.31;5063948;28;20063;-77
2022/01/25 09:51:11;;;;;;;15.60;3.20;;;;;;;16.19;52.17;101613.88;5045808;28;20090;-77
2022/01/25 09:53:38;;;;;;;17.92;2.65;;;;;;;16.16;52.36;101599.94;5063748;28;20029;-77
2022/01/25 09:56:04;;;;;;;17.17;3.08;;;;;;;16.38;52.15;101611.00;5045761;28;20047;-77
2022/01/25 09:58:29;;;;;;;13.30;2.95;;;;;;;16.26;50.37;101605.94;5063530;28;20037;-77
2022/01/25 10:01:00;;;;;;;12.38;2.58;;;;;;;16.45;51.76;101598.69;5063330;28;20064;-77
2022/01/25 10:03:33;;;;;;;19.02;3.42;;;;;;;16.78;51.39;101604.31;5063543;28;20029;-77
2022/01/25 10:06:01;;;;;;;14.88;3.28;;;;;;;16.93;51.11;101600.56;5063713;28;20104;-77
2022/01/25 10:08:30;;;;;;;11.15;3.15;;;;;;;17.36;49.84;101599.91;5063861;28;20029;-80
2022/01/25 10:10:59;;;;;;;21.27;3.17;;;;;;;17.76;48.00;101601.81;5064046;28;20051;-79
2022/01/25 10:13:27;;;;;;;16.92;2.85;;;;;;;18.26;47.40;101594.72;5045704;28;20112;-78
2022/01/25 10:16:00;;;;;;;13.65;2.70;;;;;;;18.57;46.73;101605.41;5063090;28;20166;-78
2022/01/25 10:18:45;;;;;;;15.50;3.28;;;;;;;18.55;45.68;101607.19;5045310;28;20035;-77
2022/01/25 10:21:17;;;;;;;9.73;2.35;;;;;;;18.91;45.29;101608.13;5063609;28;20035;-78
2022/01/25 10:23:58;;;;;;;;;;;;;;;18.18;43.47;101613.25;5064019;28;20013;-78
2022/01/25 10:26:24;;;;;;;12.95;2.40;;;;;;;18.39;44.59;101611.06;5063092;28;19909;-77
2022/01/25 10:28:50;;;;;;;9.40;2.38;;;;;;;18.06;44.77;101602.09;5063111;28;20024;-78
2022/01/25 10:31:17;;;;;;;12.55;2.55;;;;;;;18.14;44.21;101616.84;5063102;28;20121;-78
2022/01/25 10:33:52;;;;;;;11.15;2.17;;;;;;;18.03;44.11;101617.91;5045011;28;20029;-78
2022/01/25 10:36:20;;;;;;;11.32;3.08;;;;;;;18.12;44.06;101611.63;5062860;28;20120;-77
2022/01/25 10:38:47;;;;;;;10.98;2.45;;;;;;;17.77;43.67;101614.03;5063176;28;20021;-79
2022/01/25 10:41:15;;;;;;;12.55;2.58;;;;;;;16.88;43.66;101618.16;5063129;28;20028;-78
2022/01/25 10:43:43;;;;;;;11.45;2.55;;;;;;;16.32;45.19;101618.94;5063350;28;20274;-76
2022/01/25 10:46:31;;;;;;;7.38;2.05;;;;;;;15.73;46.45;101615.25;5062549;28;20110;-76
2022/01/25 10:49:10;;;;;;;11.68;2.55;;;;;;;15.01;46.98;101601.94;5062767;28;20112;-77
2022/01/25 10:51:42;;;;;;;6.97;2.17;;;;;;;15.13;47.20;101612.28;5062936;28;20056;-76
2022/01/25 10:54:13;;;;;;;13.00;2.20;;;;;;;14.90;46.86;101620.31;5063150;28;20025;-77
2022/01/25 10:56:59;;;;;;;9.30;3.35;;;;;;;14.20;46.82;101618.94;5062788;28;20024;-77
2022/01/25 10:59:38;;;;;;;11.52;1.98;;;;;;;13.75;47.64;101617.34;5043723;28;20035;-78
2022/01/25 11:02:06;;;;;;;9.38;2.17;;;;;;;13.44;47.89;101617.34;5067717;28;20380;-77
2022/01/25 11:04:35;;;;;;;9.25;2.00;;;;;;;12.96;47.69;101615.59;5068867;28;20021;-75
2022/01/25 11:07:11;;;;;;;13.48;2.63;;;;;;;12.58;47.71;101615.53;5069094;28;20481;-75
2022/01/25 11:09:45;;;;;;;10.25;2.13;;;;;;;12.25;47.87;101605.00;5069310;28;20060;-76
2022/01/25 11:12:14;;;;;;;9.98;3.10;;;;;;;12.34;48.32;101622.41;5068935;28;20060;-75
2022/01/25 11:14:50;;;;;;;13.02;2.35;;;;;;;12.44;47.34;101593.78;5068929;28;20029;-75
2022/01/25 11:17:36;;;;;;;7.95;2.00;;;;;;;12.71;47.42;101605.13;5068974;28;20029;-76
2022/01/25 11:20:04;;;;;;;9.50;1.77;;;;;;;12.77;46.49;101605.16;5068423;28;20540;-75
2022/01/25 11:22:30;;;;;;;10.90;2.45;;;;;;;13.09;46.04;101600.84;5069218;28;20063;-76
2022/01/25 11:24:58;;;;;;;10.82;2.50;;;;;;;13.64;44.75;101593.88;5069063;28;20103;-76
2022/01/25 11:27:26;;;;;;;8.85;2.88;;;;;;;14.34;43.41;101583.19;5068611;28;20080;-76
2022/01/25 11:29:53;;;;;;;11.95;2.78;;;;;;;14.97;42.21;101585.41;5068749;28;20025;-76
2022/01/25 11:32:23;;;;;;;23.52;2.63;;;;;;;15.45;41.75;101584.97;5050859;28;20040;-76
2022/01/25 11:34:50;;;;;;;24.50;3.53;;;;;;;15.70;40.65;101570.78;5068881;28;20545;-76
2022/01/25 11:37:16;;;;;;;19.67;2.78;;;;;;;16.03;39.91;101581.75;5050493;28;20060;-76
2022/01/25 11:39:47;;;;;;;14.23;2.42;;;;;;;16.26;39.76;101567.50;5068980;28;20028;-76
2022/01/25 11:42:22;;;;;;;10.10;2.50;;;;;;;16.02;40.36;101582.66;5068985;28;20033;-76
2022/01/25 11:44:53;;;;;;;12.80;2.03;;;;;;;14.74;41.67;101571.59;5050845;28;20048;-76
2022/01/25 11:47:22;;;;;;;23.52;3.40;;;;;;;13.56;43.83;101579.97;5068964;28;20025;-76
2022/01/25 11:49:56;;;;;;;13.10;3.00;;;;;;;12.50;45.48;101572.97;5068776;28;20416;-75
2022/01/25 11:52:24;;;;;;;10.43;2.38;;;;;;;11.45;46.97;101569.88;5050949;28;20036;-75
2022/01/25 11:55:11;;;;;;;16.45;2.55;;;;;;;10.76;48.37;101578.84;5068929;28;20449;-75
2022/01/25 11:57:46;;;;;;;13.45;2.40;;;;;;;10.13;49.81;101569.47;5067892;28;20040;-75
2022/01/25 12:00:12;;;;;;;12.52;2.63;;;;;;;9.62;50.96;101559.28;5068648;28;20029;-76
2022/01/25 12:02:46;;;;;;;20.40;3.58;;;;;;;9.26;51.57;101559.66;5068690;28;20031;-76
2022/01/25 12:05:17;;;;;;;17.67;2.75;;;;;;;8.89;52.44;101557.34;5050437;28;20029;-78
2022/01/25 12:08:14;;;;;;;11.70;2.67;;;;;;;8.55;53.14;101562.78;5068762;28;20084;-75
2022/01/25 12:10:44;;;;;;;20.20;2.67;;;;;;;8.16;54.19;101543.03;5068809;28;20281;-76
2022/01/25 12:13:23;;;;;;;12.00;2.35;;;;;;;8.06;54.74;101563.53;5065669;28;20056;-76
2022/01/25 12:16:22;;;;;;;10.30;2.50;;;;;;;7.85;55.48;101563.94;5065173;28;20036;-76
2022/01/25 12:18:59;;;;;;;17.30;3.15;;;;;;;7.62;56.00;101561.72;5065539;28;20058;-76
2022/01/25 12:21:52;;;;;;;10.75;2.53;;;;;;;7.36;57.73;101568.88;5065313;28;20045;-76
2022/01/25 12:24:19;;;;;;;12.60;2.95;;;;;;;7.21;58.34;101554.75;5065407;28;20096;-76
2022/01/25 12:27:17;;;;;;;21.75;3.65;;;;;;;7.12;58.46;101555.41;5065045;28;20102;-76
2022/01/25 12:29:47;;;;;;;18.23;3.63;;;;;;;7.00;59.32;101555.09;5046927;28;20021;-76
2022/01/25 12:32:37;;;;;;;13.15;3.00;;;;;;;6.90;60.09;101554.84;5065000;28;20077;-76
2022/01/25 12:35:06;;;;;;;17.85;2.92;;;;;;;6.76;61.11;101554.50;5065077;28;20025;-76
2022/01/25 12:37:55;;;;;;;15.82;3.13;;;;;;;6.72;60.89;101554.38;5043546;28;20364;-77
2022/01/25 12:40:28;;;;;;;15.88;4.32;;;;;;;6.65;61.27;101549.06;5045055;28;20112;-76
2022/01/25 12:42:54;;;;;;;19.35;3.67;;;;;;;6.59;61.70;101538.59;5043477;28;20534;-76
2022/01/25 12:45:21;;;;;;;15.75;2.97;;;;;;;6.49;62.11;101523.69;5043029;28;20033;-76
2022/01/25 12:48:08;;;;;;;16.30;3.10;;;;;;;6.44;62.51;101526.16;5044678;28;20037;-77
2022/01/25 12:50:40;;;;;;;15.80;3.42;;;;;;;6.49;62.45;101534.00;5043196;28;20111;-76
2022/01/25 12:53:08;;;;;;;19.38;3.67;;;;;;;6.43;63.36;101537.31;5043619;28;20367;-76
2022/01/25 12:55:38;;;;;;;13.75;3.40;;;;;;;6.29;63.94;101524.03;5044909;28;20097;-77
2022/01/25 12:58:05;;;;;;;16.75;3.00;;;;;;;6.31;64.32;101530.97;5044939;28;20281;-77
2022/01/25 13:00:38;;;;;;;20.73;3.03;;;;;;;6.26;65.09;101529.97;5044661;28;20049;-76
2022/01/25 13:03:41;;;;;;;17.25;2.92;;;;;;;6.17;66.07;101524.56;5044675;28;20017;-75
2022/01/25 13:06:12;;;;;;;17.83;3.80;;;;;;;6.11;66.63;101520.13;5044631;28;20052;-76
2022/01/25 13:09:18;;;;;;;15.60;3.58;;;;;;;6.05;67.54;101525.94;5045323;28;20079;-76
2022/01/25 13:17:14;;;;;;;12.88;3.33;;;;;;;5.98;67.71;101518.84;5044474;28;20029;-76
2022/01/25 13:20:03;;;;;;;16.27;2.83;;;;;;;5.87;68.21;101515.09;5044394;28;20025;-76
2022/01/25 13:22:37;;;;;;;15.57;3.28;;;;;;;5.91;67.85;101517.78;5059550;28;20029;-74
2022/01/25 13:25:42;;;;;;;13.90;2.60;;;;;;;5.92;68.04;101508.38;5044206;28;20023;-76
2022/01/25 13:28:21;;;;;;;16.25;2.85;;;;;;;5.88;67.81;101512.56;5044241;28;20030;-76
2022/01/25 13:30:48;;;;;;;16.50;2.72;;;;;;;5.86;67.82;101509.09;5042907;28;20025;-76